createdAt,value
2018-10-12T00:02:07.873Z,54.30
2018-10-12T00:04:42.530Z,54.80
2018-10-12T00:07:17.089Z,55.20
2018-10-12T00:09:51.588Z,54.80
2018-10-12T00:12:26.269Z,55.90
2018-10-12T00:15:00.960Z,56.40
2018-10-12T00:17:35.533Z,55.90
2018-10-12T00:20:10.334Z,56.30
2018-10-12T00:22:45.035Z,56.30
2018-10-12T00:25:19.750Z,55.70
2018-10-12T00:27:54.534Z,56.30
2018-10-12T00:30:29.091Z,56.00
2018-10-12T00:33:03.693Z,57.10
2018-10-12T00:35:38.146Z,57.30
2018-10-12T00:38:12.755Z,57.20
2018-10-12T00:40:47.393Z,56.90
2018-10-12T00:43:21.878Z,58.60
2018-10-12T00:45:56.463Z,58.40
2018-10-12T00:48:31.056Z,58.90
2018-10-12T00:51:05.607Z,59.70
2018-10-12T00:53:40.068Z,60.70
2018-10-12T00:56:14.676Z,62.50
2018-10-12T00:58:49.360Z,61.20
2018-10-12T01:01:24.068Z,63.10
2018-10-12T01:03:58.802Z,63.10
2018-10-12T01:06:33.686Z,63.80
2018-10-12T01:09:08.251Z,63.90
2018-10-12T01:11:42.847Z,63.80
2018-10-12T01:14:17.269Z,63.40
2018-10-12T01:16:52.188Z,64.00
2018-10-12T01:19:26.859Z,65.30
2018-10-12T01:22:01.739Z,65.50
2018-10-12T01:24:36.378Z,65.70
2018-10-12T01:27:11.120Z,66.10
2018-10-12T01:29:45.732Z,66.40
2018-10-12T01:32:25.517Z,66.60
2018-10-12T01:35:00.209Z,66.30
2018-10-12T01:37:34.992Z,66.30
2018-10-12T01:40:09.501Z,66.60
2018-10-12T01:42:44.181Z,67.10
2018-10-12T01:45:19.689Z,67.60
2018-10-12T01:47:54.297Z,67.60
2018-10-12T01:50:28.882Z,68.00
2018-10-12T01:53:03.560Z,68.20
2018-10-12T01:55:38.147Z,68.40
2018-10-12T01:58:12.725Z,68.40
2018-10-12T02:00:47.312Z,67.80
2018-10-12T02:03:21.810Z,67.80
2018-10-12T02:05:56.521Z,68.30
2018-10-12T02:08:31.165Z,68.80
2018-10-12T02:11:05.824Z,69.10
2018-10-12T02:13:40.409Z,69.20
2018-10-12T02:16:15.084Z,70.30
2018-10-12T02:18:49.665Z,69.90
2018-10-12T02:21:24.294Z,69.70
2018-10-12T02:23:59.081Z,69.60
2018-10-12T02:26:33.690Z,69.40
2018-10-12T02:29:08.294Z,69.90
2018-10-12T02:31:43.273Z,70.40
2018-10-12T02:34:17.827Z,71.10
2018-10-12T02:36:52.505Z,70.90
2018-10-12T02:39:33.818Z,71.90
2018-10-12T02:42:08.433Z,72.30
2018-10-12T02:44:43.043Z,72.00
2018-10-12T02:47:17.718Z,72.00
2018-10-12T02:49:52.504Z,71.90
2018-10-12T02:52:27.087Z,71.70
2018-10-12T02:55:01.763Z,71.60
2018-10-12T02:57:36.451Z,71.60
2018-10-12T03:00:11.047Z,71.30
2018-10-12T03:02:45.693Z,71.40
2018-10-12T03:05:20.468Z,71.70
2018-10-12T03:07:55.186Z,71.60
2018-10-12T03:10:29.736Z,71.90
2018-10-12T03:13:04.397Z,71.60
2018-10-12T03:15:39.173Z,71.60
2018-10-12T03:18:13.902Z,71.80
2018-10-12T03:20:48.612Z,71.80
2018-10-12T03:23:23.103Z,71.80
2018-10-12T03:26:01.845Z,72.40
2018-10-12T03:28:37.029Z,71.90
2018-10-12T03:31:11.624Z,72.50
2018-10-12T03:33:46.478Z,72.40
2018-10-12T03:36:21.237Z,72.60
2018-10-12T03:38:55.929Z,72.60
2018-10-12T03:41:30.567Z,73.00
2018-10-12T03:44:05.139Z,73.00
2018-10-12T03:46:40.008Z,72.90
2018-10-12T03:49:14.652Z,73.20
2018-10-12T03:51:49.269Z,73.40
2018-10-12T03:54:23.944Z,73.50
2018-10-12T03:56:58.638Z,73.50
2018-10-12T03:59:33.243Z,74.30
2018-10-12T04:02:07.808Z,74.10
2018-10-12T04:04:42.570Z,73.80
2018-10-12T04:07:17.039Z,74.20
2018-10-12T04:09:51.749Z,74.00
2018-10-12T04:12:26.421Z,74.20
2018-10-12T04:15:01.071Z,74.70
2018-10-12T04:17:35.615Z,75.10
2018-10-12T04:20:10.798Z,75.10
2018-10-12T04:22:45.336Z,75.40
2018-10-12T04:25:20.048Z,75.60
2018-10-12T04:27:54.465Z,75.80
2018-10-12T04:30:29.237Z,75.20
2018-10-12T04:33:03.870Z,75.30
2018-10-12T04:35:38.622Z,75.30
2018-10-12T04:38:13.140Z,75.00
2018-10-12T04:41:00.142Z,76.10
2018-10-12T04:43:34.762Z,77.70
2018-10-12T04:46:12.143Z,77.80
2018-10-12T04:48:47.462Z,77.50
2018-10-12T04:51:32.832Z,77.10
2018-10-12T04:54:07.888Z,77.60
2018-10-12T04:56:42.611Z,78.40
2018-10-12T04:59:17.287Z,78.10
2018-10-12T05:01:52.023Z,77.60
2018-10-12T05:04:26.823Z,77.60
2018-10-12T05:07:01.271Z,77.60
2018-10-12T05:09:35.899Z,77.40
2018-10-12T05:12:10.517Z,76.90
2018-10-12T05:14:45.149Z,76.80
2018-10-12T05:17:19.725Z,76.70
2018-10-12T05:19:54.204Z,76.90
2018-10-12T05:22:28.988Z,76.80
2018-10-12T05:25:03.735Z,76.70
2018-10-12T05:27:38.400Z,76.50
2018-10-12T05:30:13.018Z,76.70
2018-10-12T05:32:47.605Z,77.50
2018-10-12T05:35:22.143Z,78.30
2018-10-12T05:37:56.579Z,77.60
2018-10-12T05:40:31.030Z,78.80
2018-10-12T05:43:05.949Z,78.70
2018-10-12T05:45:40.535Z,78.40
2018-10-12T05:48:26.963Z,78.30
2018-10-12T05:51:02.171Z,78.20
2018-10-12T05:53:36.855Z,78.00
2018-10-12T05:56:13.484Z,77.70
2018-10-12T05:58:48.066Z,77.60
2018-10-12T06:01:22.713Z,77.40
2018-10-12T06:03:57.370Z,77.10
2018-10-12T06:06:31.912Z,77.00
2018-10-12T06:09:07.675Z,76.80
2018-10-12T06:11:42.152Z,76.80
2018-10-12T06:14:16.594Z,76.90
2018-10-12T06:16:51.084Z,77.00
2018-10-12T06:19:25.548Z,77.50
2018-10-12T06:21:59.992Z,77.30
2018-10-12T06:24:34.547Z,77.30
2018-10-12T06:27:09.104Z,77.80
2018-10-12T06:29:43.766Z,77.70
2018-10-12T06:32:18.396Z,78.20
2018-10-12T06:34:53.197Z,78.00
2018-10-12T06:37:27.701Z,78.30
2018-10-12T06:40:02.196Z,79.20
2018-10-12T06:42:36.686Z,77.40
2018-10-12T06:45:11.289Z,77.60
2018-10-12T06:47:46.108Z,76.40
2018-10-12T06:50:20.819Z,77.00
2018-10-12T06:52:55.448Z,76.80
2018-10-12T06:55:29.992Z,75.40
2018-10-12T06:58:04.565Z,76.00
2018-10-12T07:00:39.158Z,76.10
2018-10-12T07:03:13.632Z,74.90
2018-10-12T07:05:48.326Z,74.80
2018-10-12T07:08:22.715Z,74.40
2018-10-12T07:10:57.386Z,73.60
2018-10-12T07:13:31.947Z,73.10
2018-10-12T07:16:06.391Z,72.90
2018-10-12T07:18:40.878Z,72.60
2018-10-12T07:21:15.514Z,72.10
2018-10-12T07:23:50.014Z,72.20
2018-10-12T07:26:24.489Z,72.00
2018-10-12T07:28:58.891Z,71.20
2018-10-12T07:31:33.403Z,71.20
2018-10-12T07:34:07.910Z,70.50
2018-10-12T07:36:42.414Z,70.00
2018-10-12T07:41:51.221Z,67.90
2018-10-12T07:44:26.596Z,68.30
2018-10-12T07:47:01.201Z,67.70
2018-10-12T07:49:35.688Z,66.70
2018-10-12T07:52:10.086Z,66.10
2018-10-12T07:54:44.748Z,66.00
2018-10-12T07:57:19.250Z,65.60
2018-10-12T07:59:53.886Z,64.40
2018-10-12T08:02:28.644Z,61.30
2018-10-12T08:05:03.427Z,61.80
2018-10-12T08:07:38.180Z,59.50
2018-10-12T08:10:12.596Z,59.50
2018-10-12T08:12:47.190Z,59.10
2018-10-12T08:15:21.861Z,59.00
2018-10-12T08:17:56.381Z,59.10
2018-10-12T08:20:31.125Z,59.60
2018-10-12T08:23:05.695Z,58.30
2018-10-12T08:25:40.460Z,58.00
2018-10-12T08:28:14.921Z,57.30
2018-10-12T08:30:49.405Z,58.50
2018-10-12T08:33:24.123Z,58.70
2018-10-12T08:37:27.924Z,58.60
2018-10-12T08:40:02.396Z,58.60
2018-10-12T08:42:36.956Z,58.40
2018-10-12T08:45:11.467Z,58.80
2018-10-12T08:47:45.874Z,58.50
2018-10-12T08:50:20.574Z,58.30
2018-10-12T08:52:55.260Z,57.50
2018-10-12T08:55:30.004Z,57.50
2018-10-12T08:58:04.627Z,56.80
2018-10-12T09:00:39.255Z,57.10
2018-10-12T09:03:13.620Z,56.40
2018-10-12T09:05:48.283Z,56.10
2018-10-12T09:08:22.998Z,55.60
2018-10-12T09:10:57.595Z,55.90
2018-10-12T09:13:32.065Z,56.20
2018-10-12T09:16:07.107Z,55.10
2018-10-12T09:18:41.947Z,55.40
2018-10-12T09:21:17.142Z,54.70
2018-10-12T09:23:51.816Z,52.80
2018-10-12T09:26:26.433Z,51.90
2018-10-12T09:29:01.124Z,52.60
2018-10-12T09:31:35.655Z,52.20
2018-10-12T09:34:10.448Z,52.60
2018-10-12T09:36:45.359Z,51.90
2018-10-12T09:39:19.979Z,53.20
2018-10-12T09:41:54.711Z,51.90
2018-10-12T09:44:29.842Z,52.20
2018-10-12T09:47:04.636Z,51.90
2018-10-12T09:49:39.467Z,51.30
2018-10-12T09:52:14.358Z,52.00
2018-10-12T09:54:48.728Z,49.60
2018-10-12T09:57:30.365Z,50.90
2018-10-12T10:00:08.851Z,50.20
2018-10-12T10:02:48.357Z,50.50
2018-10-12T10:05:22.655Z,51.00
2018-10-12T10:07:57.371Z,51.70
2018-10-12T10:10:31.796Z,51.70
2018-10-12T10:13:06.191Z,51.00
2018-10-12T10:15:40.613Z,51.20
2018-10-12T10:18:15.077Z,52.80
2018-10-12T10:20:49.423Z,52.20
2018-10-12T10:23:23.824Z,51.70
2018-10-12T10:25:58.263Z,51.70
2018-10-12T10:28:32.834Z,49.50
2018-10-12T10:31:07.562Z,50.40
2018-10-12T10:33:42.188Z,51.50
2018-10-12T10:36:17.015Z,51.10
2018-10-12T10:38:51.585Z,48.80
2018-10-12T10:41:26.272Z,49.20
2018-10-12T10:44:00.921Z,49.40
2018-10-12T10:46:36.461Z,49.30
2018-10-12T10:49:11.098Z,49.30
2018-10-12T10:51:45.678Z,50.30
2018-10-12T10:54:20.011Z,47.30
2018-10-12T10:56:59.105Z,47.60
2018-10-12T10:59:35.291Z,48.20
2018-10-12T11:02:09.846Z,48.90
2018-10-12T11:04:44.518Z,47.20
2018-10-12T11:07:19.293Z,47.60
2018-10-12T11:09:53.963Z,47.50
2018-10-12T11:12:33.654Z,47.70
2018-10-12T11:15:13.465Z,47.70
2018-10-12T11:17:49.028Z,47.20
2018-10-12T11:20:23.493Z,46.80
2018-10-12T11:22:58.073Z,45.70
2018-10-12T11:25:32.540Z,46.10
2018-10-12T11:28:07.263Z,46.10
2018-10-12T11:30:41.650Z,46.60
2018-10-12T11:33:16.064Z,47.30
2018-10-12T11:35:50.660Z,47.20
2018-10-12T11:38:25.156Z,46.70
2018-10-12T11:40:59.575Z,46.50
2018-10-12T11:43:35.382Z,46.10
2018-10-12T11:46:09.779Z,47.30
2018-10-12T11:48:44.169Z,47.30
2018-10-12T11:51:32.335Z,46.70
2018-10-12T11:54:07.045Z,47.40
2018-10-12T11:56:41.689Z,46.00
2018-10-12T11:59:16.238Z,45.60
2018-10-12T12:01:50.636Z,45.70
2018-10-12T12:04:25.062Z,46.00
2018-10-12T12:12:40.781Z,46.20
2018-10-12T12:15:15.636Z,47.60
2018-10-12T12:20:32.398Z,47.20
2018-10-12T12:23:07.298Z,47.30
2018-10-12T12:25:42.365Z,48.10
2018-10-12T12:28:17.316Z,47.10
2018-10-12T12:30:52.213Z,47.00
2018-10-12T12:33:27.420Z,46.30
2018-10-12T12:36:02.485Z,46.10
2018-10-12T12:38:37.056Z,45.90
2018-10-12T12:41:12.683Z,45.70
2018-10-12T12:44:20.308Z,46.20
2018-10-12T12:50:26.428Z,45.40
2018-10-12T12:53:00.892Z,45.20
2018-10-12T12:55:35.845Z,44.90
2018-10-12T12:58:10.864Z,44.60
2018-10-12T13:00:45.726Z,45.60
2018-10-12T13:03:20.585Z,44.70
2018-10-12T13:05:55.270Z,46.10
2018-10-12T13:08:29.921Z,44.00
2018-10-12T13:11:06.715Z,44.60
2018-10-12T13:13:41.413Z,46.00
2018-10-12T13:16:16.366Z,45.50
2018-10-12T13:18:51.356Z,45.10
2018-10-12T13:24:11.409Z,45.20
2018-10-12T13:26:46.018Z,44.60
2018-10-12T13:29:20.956Z,45.00
2018-10-12T13:31:55.466Z,45.50
2018-10-12T13:34:30.105Z,44.80
2018-10-12T13:37:04.577Z,45.60
2018-10-12T13:39:39.072Z,45.70
2018-10-12T13:42:13.893Z,45.40
2018-10-12T13:44:48.587Z,46.10
2018-10-12T13:47:22.994Z,44.30
2018-10-12T13:49:57.348Z,44.50
2018-10-12T13:52:31.888Z,45.30
2018-10-12T13:55:06.408Z,45.70
2018-10-12T13:57:40.820Z,45.60
2018-10-12T14:00:15.530Z,46.30
2018-10-12T14:02:49.997Z,46.50
2018-10-12T14:05:24.558Z,46.10
2018-10-12T14:07:59.221Z,46.00
2018-10-12T14:10:33.760Z,46.40
2018-10-12T14:13:08.226Z,46.20
2018-10-12T14:15:42.809Z,45.70
2018-10-12T14:18:17.321Z,45.70
2018-10-12T14:20:51.823Z,45.70
2018-10-12T14:23:26.140Z,45.10
2018-10-12T14:26:00.655Z,44.40
2018-10-12T14:28:35.276Z,45.10
2018-10-12T14:31:09.818Z,45.20
2018-10-12T14:33:44.704Z,45.40
2018-10-12T14:36:19.112Z,45.30
2018-10-12T14:38:53.528Z,45.10
2018-10-12T14:41:28.002Z,45.40
2018-10-12T14:44:02.550Z,45.90
2018-10-12T14:46:36.928Z,46.40
2018-10-12T14:49:11.435Z,46.60
2018-10-12T14:51:46.056Z,46.90
2018-10-12T14:54:20.268Z,47.20
2018-10-12T14:56:54.604Z,47.50
2018-10-12T14:59:28.935Z,47.80
2018-10-12T15:02:03.233Z,47.60
2018-10-12T15:04:37.643Z,48.30
2018-10-12T15:07:12.077Z,48.50
2018-10-12T15:09:46.394Z,48.70
2018-10-12T15:12:20.710Z,48.90
2018-10-12T15:15:06.232Z,48.50
2018-10-12T15:17:40.817Z,48.60
2018-10-12T15:20:15.241Z,48.90
2018-10-12T15:22:49.752Z,48.60
2018-10-12T15:25:24.288Z,49.50
2018-10-12T15:27:58.640Z,49.20
2018-10-12T15:30:33.000Z,49.10
2018-10-12T15:33:07.411Z,49.70
2018-10-12T15:35:41.861Z,49.60
2018-10-12T15:38:16.325Z,50.30
2018-10-12T15:40:50.765Z,50.30
2018-10-12T15:43:25.208Z,50.50
2018-10-12T15:45:59.511Z,50.30
2018-10-12T15:48:33.862Z,50.50
2018-10-12T15:51:08.432Z,50.90
2018-10-12T15:53:42.779Z,51.20
2018-10-12T15:56:17.149Z,51.30
2018-10-12T15:58:51.437Z,51.40
2018-10-12T16:01:25.961Z,51.20
2018-10-12T16:04:00.309Z,51.00
2018-10-12T16:06:34.668Z,50.90
2018-10-12T16:09:09.194Z,50.60
2018-10-12T16:11:43.628Z,50.50
2018-10-12T16:14:18.040Z,50.80
2018-10-12T16:16:52.363Z,51.10
2018-10-12T16:19:27.080Z,51.60
2018-10-12T16:22:01.441Z,51.90
2018-10-12T16:24:35.926Z,52.40
2018-10-12T16:27:10.383Z,53.00
2018-10-12T16:29:44.896Z,53.40
2018-10-12T16:32:19.356Z,53.70
2018-10-12T16:34:53.733Z,54.20
2018-10-12T16:37:28.375Z,54.40
2018-10-12T16:40:02.822Z,55.10
2018-10-12T16:42:37.216Z,55.40
2018-10-12T16:45:11.510Z,55.50
2018-10-12T16:47:45.951Z,55.80
2018-10-12T16:50:20.292Z,55.90
2018-10-12T16:52:54.583Z,56.30
2018-10-12T16:55:28.990Z,56.40
2018-10-12T16:58:03.540Z,56.40
2018-10-12T17:00:37.839Z,56.60
2018-10-12T17:03:12.494Z,56.50
2018-10-12T17:05:46.796Z,56.60
2018-10-12T17:08:21.322Z,57.10
2018-10-12T17:10:55.635Z,57.70
2018-10-12T17:13:30.070Z,57.90
2018-10-12T17:16:04.644Z,57.90
2018-10-12T17:18:39.020Z,58.20
2018-10-12T17:21:13.410Z,57.70
2018-10-12T17:23:47.672Z,57.70
2018-10-12T17:26:21.985Z,58.10
2018-10-12T17:28:56.378Z,58.00
2018-10-12T17:31:30.886Z,58.30
2018-10-12T17:34:05.496Z,58.30
2018-10-12T17:36:39.986Z,58.60
2018-10-12T17:39:14.324Z,58.80
2018-10-12T17:41:48.819Z,58.90
2018-10-12T17:44:23.232Z,58.60
2018-10-12T17:46:57.453Z,58.80
2018-10-12T17:49:31.748Z,59.00
2018-10-12T17:52:06.365Z,59.00
2018-10-12T17:54:40.758Z,59.30
2018-10-12T17:57:15.136Z,59.40
2018-10-12T17:59:49.481Z,60.00
2018-10-12T18:02:23.882Z,60.10
2018-10-12T18:04:58.205Z,60.30
2018-10-12T18:07:32.488Z,61.10
2018-10-12T18:10:08.422Z,61.30
2018-10-12T18:12:43.011Z,62.30
2018-10-12T18:15:17.420Z,63.60
2018-10-12T18:17:51.684Z,64.20
2018-10-12T18:20:26.097Z,64.50
2018-10-12T18:23:00.470Z,64.80
2018-10-12T18:25:34.760Z,65.10
2018-10-12T18:28:09.013Z,65.40
2018-10-12T18:30:43.387Z,65.50
2018-10-12T18:33:17.815Z,65.90
2018-10-12T18:35:52.091Z,66.10
2018-10-12T18:38:26.444Z,66.50
2018-10-12T18:41:00.994Z,66.40
2018-10-12T18:43:35.559Z,66.70
2018-10-12T18:46:09.989Z,66.50
2018-10-12T18:48:44.580Z,66.80
2018-10-12T18:51:19.355Z,67.00
2018-10-12T18:53:53.796Z,67.20
2018-10-12T18:56:28.232Z,68.20
2018-10-12T18:59:03.453Z,69.40
2018-10-12T19:01:38.127Z,69.30
2018-10-12T19:04:12.539Z,69.00
2018-10-12T19:06:47.004Z,68.70
2018-10-12T19:09:21.240Z,68.20
2018-10-12T19:11:55.685Z,67.80
2018-10-12T19:14:30.100Z,68.00
2018-10-12T19:17:04.684Z,68.00
2018-10-12T19:19:39.771Z,68.00
2018-10-12T19:22:14.291Z,68.20
2018-10-12T19:24:49.805Z,68.50
2018-10-12T19:27:24.175Z,69.40
2018-10-12T19:29:58.567Z,69.10
2018-10-12T19:32:33.073Z,69.50
2018-10-12T19:35:07.532Z,69.60
2018-10-12T19:37:42.028Z,69.80
2018-10-12T19:40:16.361Z,70.20
2018-10-12T19:42:50.759Z,70.20
2018-10-12T19:45:25.307Z,70.20
2018-10-12T19:47:59.656Z,70.60
2018-10-12T19:50:34.060Z,70.70
2018-10-12T19:53:08.427Z,70.80
2018-10-12T19:55:42.796Z,70.70
2018-10-12T19:58:17.076Z,70.40
2018-10-12T20:00:51.427Z,70.20
2018-10-12T20:03:25.812Z,70.20
2018-10-12T20:06:00.181Z,70.40
2018-10-12T20:08:34.655Z,70.60
2018-10-12T20:11:09.095Z,70.70
2018-10-12T20:13:43.488Z,70.80
2018-10-12T20:16:17.885Z,71.90
2018-10-12T20:18:52.344Z,72.50
2018-10-12T20:21:26.797Z,72.80
2018-10-12T20:24:01.236Z,72.60
2018-10-12T20:26:35.600Z,72.20
2018-10-12T20:29:09.926Z,72.30
2018-10-12T20:31:44.340Z,72.10
2018-10-12T20:34:18.858Z,72.00
2018-10-12T20:36:53.292Z,72.60
2018-10-12T20:39:27.625Z,73.10
2018-10-12T20:42:02.047Z,73.10
2018-10-12T20:44:36.645Z,73.20
2018-10-12T20:47:11.828Z,73.90
2018-10-12T20:49:46.323Z,74.10
2018-10-12T20:52:20.995Z,73.80
2018-10-12T20:54:55.343Z,74.10
2018-10-12T20:57:29.816Z,73.70
2018-10-12T21:00:04.287Z,73.60
2018-10-12T21:02:38.606Z,73.40
2018-10-12T21:05:13.040Z,73.60
2018-10-12T21:07:47.582Z,73.40
2018-10-12T21:10:21.873Z,73.80
2018-10-12T21:12:56.184Z,73.50
2018-10-12T21:15:30.524Z,73.70
2018-10-12T21:18:05.281Z,73.70
2018-10-12T21:20:39.768Z,73.80
2018-10-12T21:23:14.027Z,73.80
2018-10-12T21:25:48.412Z,73.70
2018-10-12T21:28:22.928Z,73.30
2018-10-12T21:30:57.275Z,73.20
2018-10-12T21:33:31.636Z,73.20
2018-10-12T21:36:05.994Z,73.20
2018-10-12T21:38:40.401Z,73.30
2018-10-12T21:41:14.950Z,73.80
2018-10-12T21:43:49.366Z,74.50
2018-10-12T21:46:23.674Z,75.20
2018-10-12T21:48:58.092Z,74.80
2018-10-12T21:51:32.512Z,74.70
2018-10-12T21:54:06.857Z,74.90
2018-10-12T21:56:41.124Z,75.70
2018-10-12T21:59:15.456Z,75.80
2018-10-12T22:01:49.939Z,76.30
2018-10-12T22:04:24.372Z,76.30
2018-10-12T22:06:58.649Z,76.10
2018-10-12T22:09:33.005Z,76.00
2018-10-12T22:12:07.300Z,76.20
2018-10-12T22:14:41.656Z,76.50
2018-10-12T22:17:16.115Z,76.40
2018-10-12T22:19:50.588Z,76.60
2018-10-12T22:22:24.876Z,76.70
2018-10-12T22:24:59.226Z,77.10
2018-10-12T22:27:33.752Z,77.30
2018-10-12T22:30:08.176Z,76.60
2018-10-12T22:32:42.700Z,76.90
2018-10-12T22:35:17.230Z,76.00
2018-10-12T22:37:51.513Z,75.20
2018-10-12T22:40:25.841Z,74.50
2018-10-12T22:43:00.274Z,73.90
2018-10-12T22:45:34.706Z,74.20
2018-10-12T22:48:08.988Z,74.30
2018-10-12T22:50:43.497Z,74.40
2018-10-12T22:53:17.925Z,75.10
2018-10-12T22:55:52.309Z,74.20
2018-10-12T22:58:26.778Z,74.50
2018-10-12T23:01:01.042Z,74.80
2018-10-12T23:03:35.545Z,75.00
2018-10-12T23:06:10.016Z,75.80
2018-10-12T23:08:44.571Z,76.00
2018-10-12T23:11:19.110Z,76.60
2018-10-12T23:13:53.628Z,77.20
2018-10-12T23:16:28.066Z,76.90
2018-10-12T23:19:02.447Z,76.60
2018-10-12T23:21:36.872Z,76.30
2018-10-12T23:24:11.392Z,75.70
2018-10-12T23:26:45.832Z,75.10
2018-10-12T23:29:20.344Z,75.50
2018-10-12T23:31:54.860Z,75.60
2018-10-12T23:34:29.276Z,75.50
2018-10-12T23:37:03.583Z,75.60
2018-10-12T23:39:38.011Z,76.40
2018-10-12T23:42:12.425Z,77.00
2018-10-12T23:44:46.762Z,77.30
2018-10-12T23:47:21.143Z,77.60
2018-10-12T23:49:55.511Z,79.10
2018-10-12T23:52:30.082Z,78.50
2018-10-12T23:55:04.336Z,78.10
2018-10-12T23:57:38.615Z,77.90
